Time;durP1;ratioP1;P1;durP2;ratioP2;P2;SDS_P1;SDS_P2;PMS_P1;PMS_P2;Temp;Humidity;BMP_temperature;BMP_pressure;BME280_temperature;BME280_humidity;BME280_pressure;Samples;Min_cycle;Max_cycle;Signal;HPM_P1;HPM_P2
2024/04/01 00:00:08;0.00;0.00;0.62;0.00;0.00;0.62;10.90;8.40;;;24.50;26.50;;;;;;2232270;62;20602;-68
2024/04/01 00:02:40;0.00;0.00;0.62;0.00;0.00;0.62;8.53;7.63;;;24.60;26.60;;;;;;2232209;62;20909;-66
2024/04/01 00:05:07;0.00;0.00;0.62;0.00;0.00;0.62;11.10;7.60;;;24.60;26.60;;;;;;2231904;62;20716;-68
2024/04/01 00:07:34;0.00;0.00;0.62;0.00;0.00;0.62;9.40;7.93;;;24.50;26.50;;;;;;2231471;62;20395;-67
2024/04/01 00:10:00;0.00;0.00;0.62;0.00;0.00;0.62;9.47;7.90;;;24.60;26.60;;;;;;2232209;62;20364;-67
2024/04/01 00:12:26;0.00;0.00;0.62;0.00;0.00;0.62;10.13;7.93;;;24.50;26.50;;;;;;2231914;62;20364;-68
2024/04/01 00:14:52;0.00;0.00;0.62;0.00;0.00;0.62;8.87;7.60;;;24.50;26.50;;;;;;2232202;62;20396;-66
2024/04/01 00:17:19;0.00;0.00;0.62;0.00;0.00;0.62;8.20;7.00;;;24.60;26.60;;;;;;2232318;62;20382;-65
2024/04/01 00:19:46;0.00;0.00;0.62;0.00;0.00;0.62;10.00;7.90;;;24.60;26.60;;;;;;2231777;62;20594;-65
2024/04/01 00:22:13;0.00;0.00;0.62;0.00;0.00;0.62;9.50;8.00;;;24.50;26.50;;;;;;2232251;62;20360;-68
2024/04/01 00:24:40;0.00;0.00;0.62;0.00;0.00;0.62;11.90;8.00;;;24.50;26.50;;;;;;2232051;62;20425;-65
2024/04/01 00:27:07;0.00;0.00;0.62;0.00;0.00;0.62;11.10;8.93;;;24.50;26.50;;;;;;2231724;62;20439;-66
2024/04/01 00:29:33;0.00;0.00;0.62;0.00;0.00;0.62;11.00;8.13;;;24.50;26.50;;;;;;2231922;62;20352;-66
2024/04/01 00:31:59;0.00;0.00;0.62;0.00;0.00;0.62;8.83;7.93;;;24.50;26.50;;;;;;2231901;62;20360;-65
2024/04/01 00:34:26;0.00;0.00;0.62;0.00;0.00;0.62;11.27;8.63;;;24.50;26.50;;;;;;2231698;62;20950;-64
2024/04/01 00:36:52;0.00;0.00;0.62;0.00;0.00;0.62;11.60;8.40;;;24.50;26.50;;;;;;2232127;62;20775;-65
2024/04/01 00:39:19;0.00;0.00;0.62;0.00;0.00;0.62;9.30;7.63;;;24.50;26.50;;;;;;2232136;62;20478;-65
2024/04/01 00:41:45;0.00;0.00;0.62;0.00;0.00;0.62;9.43;7.23;;;24.50;26.50;;;;;;2233081;62;20372;-67
2024/04/01 00:44:12;0.00;0.00;0.62;0.00;0.00;0.62;11.07;8.30;;;24.50;26.50;;;;;;2231932;62;20360;-65
2024/04/01 00:46:38;0.00;0.00;0.62;0.00;0.00;0.62;10.13;7.73;;;24.50;26.50;;;;;;2231933;62;20392;-68
2024/04/01 00:49:05;0.00;0.00;0.62;0.00;0.00;0.62;11.50;8.17;;;24.50;26.50;;;;;;2236081;56;20435;-65
2024/04/01 00:51:32;0.00;0.00;0.62;0.00;0.00;0.62;10.87;6.80;;;24.50;26.50;;;;;;2231656;62;20432;-65
2024/04/01 00:54:00;0.00;0.00;0.62;0.00;0.00;0.62;9.23;7.60;;;24.50;26.50;;;;;;2232048;62;20460;-64
2024/04/01 00:56:29;0.00;0.00;0.62;0.00;0.00;0.62;11.10;7.73;;;24.50;26.50;;;;;;2232071;62;20364;-65
2024/04/01 00:58:56;0.00;0.00;0.62;0.00;0.00;0.62;10.07;7.87;;;24.50;26.50;;;;;;2231913;62;20396;-65
2024/04/01 01:01:23;0.00;0.00;0.62;0.00;0.00;0.62;11.17;8.43;;;24.50;26.50;;;;;;2231920;62;20365;-64
2024/04/01 01:03:49;0.00;0.00;0.62;0.00;0.00;0.62;10.87;7.43;;;24.50;26.50;;;;;;2232197;62;20360;-64
2024/04/01 01:06:21;0.00;0.00;0.62;0.00;0.00;0.62;7.87;7.07;;;24.50;26.50;;;;;;2231706;62;20953;-64
2024/04/01 01:08:48;0.00;0.00;0.62;0.00;0.00;0.62;9.37;7.47;;;24.50;26.50;;;;;;2231976;62;20352;-65
2024/04/01 01:11:14;0.00;0.00;0.62;0.00;0.00;0.62;16.30;7.70;;;24.50;26.50;;;;;;2231979;62;20388;-64
2024/04/01 01:13:42;0.00;0.00;0.62;0.00;0.00;0.62;10.90;8.87;;;24.50;26.50;;;;;;2227878;62;20365;-65
2024/04/01 01:16:08;0.00;0.00;0.62;0.00;0.00;0.62;18.40;8.80;;;24.50;26.50;;;;;;2228112;62;20795;-65
2024/04/01 01:18:34;0.00;0.00;0.62;0.00;0.00;0.62;10.80;7.93;;;24.50;26.50;;;;;;2228195;62;20392;-65
2024/04/01 01:21:00;0.00;0.00;0.62;0.00;0.00;0.62;16.30;8.47;;;24.40;26.50;;;;;;2227958;62;20393;-65
2024/04/01 01:23:28;0.00;0.00;0.62;0.00;0.00;0.62;11.00;8.80;;;24.50;26.50;;;;;;2228172;62;20357;-65
2024/04/01 01:25:55;0.00;0.00;0.62;0.00;0.00;0.62;10.13;7.80;;;24.40;26.50;;;;;;2227522;62;20374;-65
2024/04/01 01:28:21;0.00;0.00;0.62;0.00;0.00;0.62;9.27;7.93;;;24.50;26.50;;;;;;2231314;62;20825;-65
2024/04/01 01:30:47;0.00;0.00;0.62;0.00;0.00;0.62;9.13;7.27;;;24.50;26.50;;;;;;2231700;62;20901;-65
2024/04/01 01:33:13;0.00;0.00;0.62;0.00;0.00;0.62;9.10;7.43;;;24.40;26.50;;;;;;2232136;62;20893;-65
2024/04/01 01:35:40;0.00;0.00;0.62;0.00;0.00;0.62;8.30;7.00;;;24.50;26.50;;;;;;2231852;62;20459;-65
2024/04/01 01:38:06;0.00;0.00;0.62;0.00;0.00;0.62;10.17;8.30;;;24.50;26.50;;;;;;2231579;62;20360;-65
2024/04/01 01:40:34;0.00;0.00;0.62;0.00;0.00;0.62;10.20;7.87;;;24.40;26.50;;;;;;2232000;62;20372;-65
2024/04/01 01:43:00;0.00;0.00;0.62;0.00;0.00;0.62;8.90;7.47;;;24.50;26.50;;;;;;2228116;62;20369;-64
2024/04/01 01:45:26;0.00;0.00;0.62;0.00;0.00;0.62;11.43;8.13;;;24.40;26.50;;;;;;2227019;62;20437;-65
2024/04/01 01:47:52;0.00;0.00;0.62;0.00;0.00;0.62;10.83;8.33;;;24.40;26.50;;;;;;2227932;62;20448;-65
2024/04/01 01:50:22;0.00;0.00;0.62;0.00;0.00;0.62;8.70;7.20;;;24.40;26.50;;;;;;2230002;62;20402;-65
2024/04/01 01:52:49;0.00;0.00;0.62;0.00;0.00;0.62;9.17;7.30;;;24.40;26.50;;;;;;2225387;62;20369;-65
2024/04/01 01:55:16;0.00;0.00;0.62;0.00;0.00;0.62;12.47;8.63;;;24.40;26.50;;;;;;2231714;62;20897;-65
2024/04/01 01:57:43;0.00;0.00;0.62;0.00;0.00;0.62;10.43;7.50;;;24.40;26.50;;;;;;2231752;62;20395;-65
2024/04/01 02:00:14;0.00;0.00;0.62;0.00;0.00;0.62;9.00;7.33;;;24.40;26.50;;;;;;2229695;62;20389;-65
2024/04/01 02:02:40;0.00;0.00;0.62;0.00;0.00;0.62;8.83;7.50;;;24.40;26.50;;;;;;2227493;62;20369;-65
2024/04/01 02:05:07;0.00;0.00;0.62;0.00;0.00;0.62;10.30;7.73;;;24.40;26.50;;;;;;2227871;62;20795;-65
2024/04/01 02:07:33;0.00;0.00;0.62;0.00;0.00;0.62;9.57;7.87;;;24.40;26.50;;;;;;2227532;62;20357;-65
2024/04/01 02:09:59;0.00;0.00;0.62;0.00;0.00;0.62;9.50;7.40;;;24.40;26.50;;;;;;2227937;62;20384;-65
2024/04/01 02:12:26;0.00;0.00;0.62;0.00;0.00;0.62;7.97;7.00;;;24.40;26.50;;;;;;2228209;62;20361;-65
2024/04/01 02:14:54;0.00;0.00;0.62;0.00;0.00;0.62;9.20;7.23;;;24.40;26.50;;;;;;2227655;62;20362;-64
2024/04/01 02:17:20;0.00;0.00;0.62;0.00;0.00;0.62;9.07;7.80;;;24.40;26.50;;;;;;2227654;62;20412;-65
2024/04/01 02:19:47;0.00;0.00;0.62;0.00;0.00;0.62;11.07;7.93;;;24.40;26.50;;;;;;2227782;62;20420;-65
2024/04/01 02:22:14;0.00;0.00;0.62;0.00;0.00;0.62;9.77;8.17;;;24.40;26.50;;;;;;2228187;62;20371;-65
2024/04/01 02:24:41;0.00;0.00;0.62;0.00;0.00;0.62;12.83;7.87;;;24.40;26.50;;;;;;2231892;62;20898;-65
2024/04/01 02:27:09;0.00;0.00;0.62;0.00;0.00;0.62;11.67;8.80;;;24.40;26.50;;;;;;2231817;62;20387;-65
2024/04/01 02:29:35;0.00;0.00;0.62;0.00;0.00;0.62;11.00;8.10;;;24.40;26.50;;;;;;2230542;62;20396;-65
2024/04/01 02:32:03;0.00;0.00;0.62;0.00;0.00;0.62;9.87;8.10;;;24.40;26.50;;;;;;2227234;62;20357;-65
2024/04/01 02:34:29;0.00;0.00;0.62;0.00;0.00;0.62;9.10;7.40;;;24.40;26.50;;;;;;2228104;62;20448;-64
2024/04/01 02:36:55;0.00;0.00;0.62;0.00;0.00;0.62;9.20;7.27;;;24.40;26.50;;;;;;2228110;62;20400;-65
2024/04/01 02:39:21;0.00;0.00;0.62;0.00;0.00;0.62;10.37;7.27;;;24.40;26.50;;;;;;2231687;62;20396;-65
2024/04/01 02:41:49;0.00;0.00;0.62;0.00;0.00;0.62;8.20;7.10;;;24.40;26.50;;;;;;2231847;62;20911;-65
2024/04/01 02:44:16;0.00;0.00;0.62;0.00;0.00;0.62;10.63;7.47;;;24.40;26.50;;;;;;2230030;62;20368;-65
2024/04/01 02:46:44;0.00;0.00;0.62;0.00;0.00;0.62;9.17;8.23;;;24.40;26.50;;;;;;2227824;62;20407;-65
2024/04/01 02:49:12;0.00;0.00;0.62;0.00;0.00;0.62;10.03;7.23;;;24.40;26.50;;;;;;2227975;62;20758;-65
2024/04/01 02:51:39;0.00;0.00;0.62;0.00;0.00;0.62;10.70;7.80;;;24.40;26.50;;;;;;2227952;62;20391;-65
2024/04/01 02:54:05;0.00;0.00;0.62;0.00;0.00;0.62;12.90;7.23;;;24.40;27.10;;;;;;2231952;62;20371;-65
2024/04/01 02:56:32;0.00;0.00;0.62;0.00;0.00;0.62;9.27;7.33;;;24.30;26.50;;;;;;2231882;62;20364;-65
2024/04/01 02:59:04;0.00;0.00;0.62;0.00;0.00;0.62;10.00;7.47;;;24.40;26.50;;;;;;2231557;62;20391;-65
2024/04/01 03:01:30;0.00;0.00;0.62;0.00;0.00;0.62;8.73;6.83;;;24.30;26.50;;;;;;2228460;62;20357;-65
2024/04/01 03:04:00;0.00;0.00;0.62;0.00;0.00;0.62;10.37;7.30;;;24.40;26.50;;;;;;2228808;62;20357;-65
2024/04/01 03:06:29;0.00;0.00;0.62;0.00;0.00;0.62;8.63;7.77;;;24.30;26.60;;;;;;2228661;62;20447;-65
2024/04/01 03:08:56;0.00;0.00;0.62;0.00;0.00;0.62;8.90;7.27;;;24.40;26.50;;;;;;2232355;62;20782;-65
2024/04/01 03:11:22;0.00;0.00;0.62;0.00;0.00;0.62;8.23;6.57;;;24.30;26.50;;;;;;2232753;62;20364;-65
2024/04/01 03:13:48;0.00;0.00;0.62;0.00;0.00;0.62;9.97;6.63;;;24.30;26.50;;;;;;2231141;62;20894;-65
2024/04/01 03:16:16;0.00;0.00;0.62;0.00;0.00;0.62;12.30;6.90;;;24.30;26.50;;;;;;2228025;62;20349;-64
2024/04/01 03:18:43;0.00;0.00;0.62;0.00;0.00;0.62;8.23;6.97;;;24.30;26.50;;;;;;2228615;62;20389;-65
2024/04/01 03:21:09;0.00;0.00;0.62;0.00;0.00;0.62;9.63;7.20;;;24.30;26.50;;;;;;2227975;62;20380;-65
2024/04/01 03:23:37;0.00;0.00;0.62;0.00;0.00;0.62;7.77;6.73;;;24.30;26.50;;;;;;2227897;62;20357;-65
2024/04/01 03:26:04;0.00;0.00;0.62;0.00;0.00;0.62;10.90;7.43;;;24.30;26.50;;;;;;2228518;62;20767;-65
2024/04/01 03:28:30;0.00;0.00;0.62;0.00;0.00;0.62;9.30;6.70;;;24.30;26.50;;;;;;2228007;62;20735;-65
2024/04/01 03:30:56;0.00;0.00;0.62;0.00;0.00;0.62;11.47;8.23;;;24.30;26.50;;;;;;2228480;62;20381;-65
2024/04/01 03:33:22;0.00;0.00;0.62;0.00;0.00;0.62;9.53;6.80;;;24.30;26.50;;;;;;2228579;62;20364;-65
2024/04/01 03:35:55;0.00;0.00;0.62;0.00;0.00;0.62;8.13;7.33;;;24.30;26.50;;;;;;2228323;62;20875;-65
2024/04/01 03:38:21;0.00;0.00;0.62;0.00;0.00;0.62;9.37;7.30;;;24.30;26.50;;;;;;2232222;62;20356;-65
2024/04/01 03:40:50;0.00;0.00;0.62;0.00;0.00;0.62;8.50;6.93;;;24.30;26.50;;;;;;2232330;62;20372;-65
2024/04/01 03:43:16;0.00;0.00;0.62;0.00;0.00;0.62;8.83;8.00;;;24.30;26.50;;;;;;2231694;62;20519;-64
2024/04/01 03:45:42;0.00;0.00;0.62;0.00;0.00;0.62;9.13;7.37;;;24.30;26.50;;;;;;2228146;62;20863;-65
2024/04/01 03:48:08;0.00;0.00;0.62;0.00;0.00;0.62;10.33;7.20;;;24.30;27.00;;;;;;2228208;62;20951;-65
2024/04/01 03:50:41;0.00;0.00;0.62;0.00;0.00;0.62;9.30;7.13;;;24.30;26.60;;;;;;2227600;62;20392;-65
2024/04/01 03:53:07;0.00;0.00;0.62;0.00;0.00;0.62;8.77;7.47;;;24.30;26.60;;;;;;2228404;62;20461;-65
2024/04/01 03:55:33;0.00;0.00;0.62;0.00;0.00;0.62;10.53;8.10;;;24.30;26.50;;;;;;2228428;62;20476;-65
2024/04/01 03:58:01;0.00;0.00;0.62;0.00;0.00;0.62;8.47;6.80;;;24.30;26.50;;;;;;2228114;62;20362;-64
2024/04/01 04:00:27;0.00;0.00;0.62;0.00;0.00;0.62;8.43;7.30;;;24.30;26.50;;;;;;2232107;62;20449;-65
2024/04/01 04:02:53;0.00;0.00;0.62;0.00;0.00;0.62;8.60;7.27;;;24.30;26.60;;;;;;2232447;62;20376;-65
2024/04/01 04:05:20;0.00;0.00;0.62;0.00;0.00;0.62;9.47;6.63;;;24.30;26.50;;;;;;2231492;62;20383;-65
2024/04/01 04:07:46;0.00;0.00;0.62;0.00;0.00;0.62;8.17;7.13;;;24.30;26.50;;;;;;2228129;62;20939;-65
2024/04/01 04:10:12;0.00;0.00;0.62;0.00;0.00;0.62;7.50;6.70;;;24.30;26.50;;;;;;2228268;62;20835;-65
2024/04/01 04:12:38;0.00;0.00;0.62;0.00;0.00;0.62;9.20;6.47;;;24.20;26.50;;;;;;2228066;62;20755;-65
2024/04/01 04:15:09;0.00;0.00;0.62;0.00;0.00;0.62;7.03;6.33;;;24.30;26.50;;;;;;2228388;62;20914;-65
2024/04/01 04:17:35;0.00;0.00;0.62;0.00;0.00;0.62;7.47;6.60;;;24.30;26.50;;;;;;2228475;62;20365;-65
2024/04/01 04:20:02;0.00;0.00;0.62;0.00;0.00;0.62;7.83;6.80;;;24.20;26.50;;;;;;2228040;62;20524;-65
2024/04/01 04:22:28;0.00;0.00;0.62;0.00;0.00;0.62;7.90;6.47;;;24.30;26.60;;;;;;2228343;62;20379;-65
2024/04/01 04:24:55;0.00;0.00;0.62;0.00;0.00;0.62;8.67;7.27;;;24.20;27.00;;;;;;2228675;62;20361;-64
2024/04/01 04:27:21;0.00;0.00;0.62;0.00;0.00;0.62;9.93;6.70;;;24.20;26.50;;;;;;2228434;62;20475;-63
2024/04/01 04:29:47;0.00;0.00;0.62;0.00;0.00;0.62;9.43;6.70;;;24.20;26.50;;;;;;2228084;62;20451;-65
2024/04/01 04:32:15;0.00;0.00;0.62;0.00;0.00;0.62;9.53;6.70;;;24.20;26.50;;;;;;2228684;62;20364;-65
2024/04/01 04:34:41;0.00;0.00;0.62;0.00;0.00;0.62;6.27;5.50;;;24.20;27.00;;;;;;2228514;62;20361;-64
2024/04/01 04:37:08;0.00;0.00;0.62;0.00;0.00;0.62;8.13;6.57;;;24.20;26.50;;;;;;2231578;62;20399;-64
2024/04/01 04:39:34;0.00;0.00;0.62;0.00;0.00;0.62;8.30;6.67;;;24.20;26.50;;;;;;2232398;62;20388;-64
2024/04/01 04:42:01;0.00;0.00;0.62;0.00;0.00;0.62;7.57;6.77;;;24.20;26.50;;;;;;2232375;62;20360;-64
2024/04/01 04:44:27;0.00;0.00;0.62;0.00;0.00;0.62;8.23;6.87;;;24.20;26.60;;;;;;2228369;62;20396;-64
2024/04/01 04:46:54;0.00;0.00;0.62;0.00;0.00;0.62;8.93;7.20;;;24.20;26.50;;;;;;2228316;62;20368;-64
2024/04/01 04:49:21;0.00;0.00;0.62;0.00;0.00;0.62;9.27;7.00;;;24.20;26.60;;;;;;2228069;62;20484;-65
2024/04/01 04:51:47;0.00;0.00;0.62;0.00;0.00;0.62;8.00;6.50;;;24.20;26.60;;;;;;2227683;62;20365;-64
2024/04/01 04:54:13;0.00;0.00;0.62;0.00;0.00;0.62;11.03;7.20;;;24.20;26.60;;;;;;2228403;62;20416;-64
2024/04/01 04:56:40;0.00;0.00;0.62;0.00;0.00;0.62;8.87;7.53;;;24.20;26.60;;;;;;2227483;62;20368;-64
2024/04/01 04:59:06;0.00;0.00;0.62;0.00;0.00;0.62;7.83;7.03;;;24.10;26.50;;;;;;2231179;62;20388;-64
2024/04/01 05:01:32;0.00;0.00;0.62;0.00;0.00;0.62;10.77;8.20;;;24.20;26.60;;;;;;2232254;62;20368;-64
2024/04/01 05:03:59;0.00;0.00;0.62;0.00;0.00;0.62;8.83;7.57;;;24.20;26.60;;;;;;2232151;62;20395;-65
2024/04/01 05:06:26;0.00;0.00;0.62;0.00;0.00;0.62;10.50;8.37;;;24.20;26.60;;;;;;2231376;62;20472;-64
2024/04/01 05:08:53;0.00;0.00;0.62;0.00;0.00;0.62;9.03;7.80;;;24.20;26.60;;;;;;2232260;62;20459;-64
2024/04/01 05:11:19;0.00;0.00;0.62;0.00;0.00;0.62;10.30;9.17;;;24.20;26.60;;;;;;2231929;62;20443;-64
2024/04/01 05:13:45;0.00;0.00;0.62;0.00;0.00;0.62;12.90;10.33;;;24.10;26.60;;;;;;2228193;62;20361;-64
2024/04/01 05:16:14;0.00;0.00;0.62;0.00;0.00;0.62;16.73;12.13;;;24.10;26.60;;;;;;2228231;62;20413;-65
2024/04/01 05:18:41;0.00;0.00;0.62;0.00;0.00;0.62;13.90;12.23;;;24.10;26.60;;;;;;2227986;62;20505;-65
2024/04/01 05:21:08;0.00;0.00;0.62;0.00;0.00;0.62;20.13;15.20;;;24.10;27.10;;;;;;2227633;62;20428;-65
2024/04/01 05:23:35;0.00;0.00;0.62;0.00;0.00;0.62;20.00;16.37;;;24.10;26.60;;;;;;2228348;62;20369;-65
2024/04/01 05:26:02;0.00;0.00;0.62;0.00;0.00;0.62;26.57;18.67;;;24.10;26.60;;;;;;2227949;62;20365;-65
2024/04/01 05:28:28;0.00;0.00;0.62;0.00;0.00;0.62;30.00;19.90;;;24.10;26.60;;;;;;2227694;62;20365;-65
2024/04/01 05:30:54;0.00;0.00;0.62;0.00;0.00;0.62;30.43;21.67;;;24.10;26.60;;;;;;2228054;62;20378;-65
2024/04/01 05:33:20;0.00;0.00;0.62;0.00;0.00;0.62;31.40;22.27;;;24.10;26.60;;;;;;2227939;62;20365;-65
2024/04/01 05:35:48;0.00;0.00;0.62;0.00;0.00;0.62;31.50;24.20;;;24.10;26.60;;;;;;2230583;62;20882;-65
2024/04/01 05:38:15;0.00;0.00;0.62;0.00;0.00;0.62;33.13;25.10;;;24.10;26.60;;;;;;2232078;62;20770;-65
2024/04/01 05:40:42;0.00;0.00;0.62;0.00;0.00;0.62;37.37;25.43;;;24.10;26.60;;;;;;2231889;62;20388;-65
2024/04/01 05:43:09;0.00;0.00;0.62;0.00;0.00;0.62;42.90;27.23;;;24.10;26.60;;;;;;2228502;62;20877;-65
2024/04/01 05:45:36;0.00;0.00;0.62;0.00;0.00;0.62;36.20;27.40;;;24.10;26.60;;;;;;2228022;62;20400;-65
2024/04/01 05:48:03;0.00;0.00;0.62;0.00;0.00;0.62;41.13;28.93;;;24.10;26.60;;;;;;2227361;62;20358;-65
2024/04/01 05:50:29;0.00;0.00;0.62;0.00;0.00;0.62;43.17;28.80;;;24.10;26.60;;;;;;2230556;62;20404;-65
2024/04/01 05:52:56;0.00;0.00;0.62;0.00;0.00;0.62;40.50;26.80;;;24.10;26.60;;;;;;2232117;62;20361;-64
2024/04/01 05:55:23;0.00;0.00;0.62;0.00;0.00;0.62;42.40;27.60;;;24.10;26.70;;;;;;2232034;62;20352;-64
2024/04/01 05:57:50;0.00;0.00;0.62;0.00;0.00;0.62;41.67;28.37;;;24.00;26.60;;;;;;2231916;62;20372;-65
2024/04/01 06:00:17;0.00;0.00;0.62;0.00;0.00;0.62;35.93;24.70;;;24.10;26.70;;;;;;2232113;62;20392;-65
2024/04/01 06:02:43;0.00;0.00;0.62;0.00;0.00;0.62;33.27;25.27;;;24.10;26.70;;;;;;2231937;62;20368;-64
2024/04/01 06:05:09;0.00;0.00;0.62;0.00;0.00;0.62;36.50;25.60;;;24.00;26.60;;;;;;2231549;62;20376;-65
2024/04/01 06:07:35;0.00;0.00;0.62;0.00;0.00;0.62;40.73;26.47;;;24.10;26.70;;;;;;2231896;62;20371;-65
2024/04/01 06:10:01;0.00;0.00;0.62;0.00;0.00;0.62;27.70;23.30;;;24.00;27.20;;;;;;2232022;62;21062;-64
2024/04/01 06:12:28;0.00;0.00;0.62;0.00;0.00;0.62;37.00;24.33;;;24.10;26.70;;;;;;2229001;62;20369;-65
2024/04/01 06:14:55;0.00;0.00;0.62;0.00;0.00;0.62;29.73;22.17;;;24.00;26.60;;;;;;2228108;62;20362;-65
2024/04/01 06:17:22;0.00;0.00;0.62;0.00;0.00;0.62;36.20;23.37;;;24.00;26.60;;;;;;2227815;62;20884;-65
2024/04/01 06:19:48;0.00;0.00;0.62;0.00;0.00;0.62;32.57;22.13;;;24.10;26.70;;;;;;2227385;62;20431;-65
2024/04/01 06:22:14;0.00;0.00;0.62;0.00;0.00;0.62;33.90;21.97;;;24.00;27.20;;;;;;2228158;62;20880;-65
2024/04/01 06:24:40;0.00;0.00;0.62;0.00;0.00;0.62;29.60;21.30;;;24.00;26.60;;;;;;2227382;62;20392;-65
2024/04/01 06:27:07;0.00;0.00;0.62;0.00;0.00;0.62;30.17;21.73;;;24.00;26.60;;;;;;2227490;62;20369;-65
2024/04/01 06:29:34;0.00;0.00;0.62;0.00;0.00;0.62;27.00;20.73;;;24.00;26.70;;;;;;2227919;62;20369;-65
2024/04/01 06:32:02;0.00;0.00;0.62;0.00;0.00;0.62;28.80;22.57;;;24.10;26.70;;;;;;2227941;62;20361;-65
2024/04/01 06:34:28;0.00;0.00;0.62;0.00;0.00;0.62;25.50;20.30;;;24.10;26.70;;;;;;2230332;62;20375;-65
2024/04/01 06:36:54;0.00;0.00;0.62;0.00;0.00;0.62;28.57;19.77;;;24.00;26.70;;;;;;2232579;62;20827;-65
2024/04/01 06:39:20;0.00;0.00;0.62;0.00;0.00;0.62;26.43;19.17;;;24.00;26.70;;;;;;2232365;62;20436;-64
2024/04/01 06:41:47;0.00;0.00;0.62;0.00;0.00;0.62;27.43;20.17;;;24.00;26.70;;;;;;2230150;62;20424;-64
2024/04/01 06:44:13;0.00;0.00;0.62;0.00;0.00;0.62;23.20;17.90;;;24.00;26.70;;;;;;2228653;62;20903;-65
2024/04/01 06:46:39;0.00;0.00;0.62;0.00;0.00;0.62;27.80;17.67;;;24.00;26.70;;;;;;2228440;62;20368;-65
2024/04/01 06:49:07;0.00;0.00;0.62;0.00;0.00;0.62;25.40;17.00;;;24.00;26.70;;;;;;2227967;62;20395;-65
2024/04/01 06:51:33;0.00;0.00;0.62;0.00;0.00;0.62;25.67;17.53;;;24.10;26.80;;;;;;2239560;48;20353;-68
2024/04/01 06:53:59;0.00;0.00;0.62;0.00;0.00;0.62;21.40;16.93;;;24.00;26.70;;;;;;2236858;62;20375;-68
2024/04/01 06:56:26;0.00;0.00;0.62;0.00;0.00;0.62;20.57;16.67;;;24.00;26.70;;;;;;2235938;62;20452;-68
2024/04/01 06:58:52;0.00;0.00;0.62;0.00;0.00;0.62;22.63;17.20;;;24.00;26.70;;;;;;2236496;62;20364;-68
2024/04/01 07:01:18;0.00;0.00;0.62;0.00;0.00;0.62;22.10;16.20;;;24.00;26.70;;;;;;2236972;61;20411;-67
2024/04/01 07:03:44;0.00;0.00;0.62;0.00;0.00;0.62;17.83;14.20;;;24.00;26.70;;;;;;2236480;62;20394;-68
2024/04/01 07:06:11;0.00;0.00;0.62;0.00;0.00;0.62;21.30;14.57;;;24.00;26.70;;;;;;2236576;62;20359;-68
2024/04/01 07:08:38;0.00;0.00;0.62;0.00;0.00;0.62;18.87;14.73;;;24.00;26.70;;;;;;2236267;62;20370;-71
2024/04/01 07:11:04;0.00;0.00;0.62;0.00;0.00;0.62;18.80;14.73;;;24.00;26.80;;;;;;2239296;61;20367;-68
2024/04/01 07:13:30;0.00;0.00;0.62;0.00;0.00;0.62;17.97;13.03;;;24.00;26.80;;;;;;2237132;62;20474;-67
2024/04/01 07:15:57;0.00;0.00;0.62;0.00;0.00;0.62;17.90;13.80;;;24.00;26.80;;;;;;2236465;62;20362;-68
2024/04/01 07:18:28;0.00;0.00;0.62;0.00;0.00;0.62;15.87;12.53;;;24.00;26.80;;;;;;2236778;62;20779;-68
2024/04/01 07:20:54;0.00;0.00;0.62;0.00;0.00;0.62;18.67;14.37;;;24.00;26.80;;;;;;2237238;62;20426;-67
2024/04/01 07:23:22;0.00;0.00;0.62;0.00;0.00;0.62;16.53;13.77;;;24.00;26.80;;;;;;2236095;62;20375;-68
2024/04/01 07:25:50;0.00;0.00;0.62;0.00;0.00;0.62;17.47;12.30;;;24.00;26.80;;;;;;2236382;62;20785;-68
2024/04/01 07:28:16;0.00;0.00;0.62;0.00;0.00;0.62;19.80;13.77;;;24.00;26.80;;;;;;2236978;62;20413;-68
2024/04/01 07:30:42;0.00;0.00;0.62;0.00;0.00;0.62;14.73;12.43;;;24.00;27.40;;;;;;2236710;62;20793;-68
2024/04/01 07:33:08;0.00;0.00;0.62;0.00;0.00;0.62;18.27;12.43;;;24.00;26.80;;;;;;2236395;61;20458;-68
2024/04/01 07:35:35;0.00;0.00;0.62;0.00;0.00;0.62;16.83;12.90;;;24.00;26.80;;;;;;2237143;62;20406;-68
2024/04/01 07:38:01;0.00;0.00;0.62;0.00;0.00;0.62;15.50;11.83;;;24.00;27.40;;;;;;2236832;62;20360;-68
2024/04/01 07:40:28;0.00;0.00;0.62;0.00;0.00;0.62;16.20;12.27;;;24.00;26.90;;;;;;2236428;62;20394;-67
2024/04/01 07:42:54;0.00;0.00;0.62;0.00;0.00;0.62;14.90;11.90;;;24.00;26.90;;;;;;2236425;61;20441;-67
2024/04/01 07:45:20;0.00;0.00;0.62;0.00;0.00;0.62;16.00;11.90;;;24.00;26.90;;;;;;2236679;62;20374;-67
2024/04/01 07:47:47;0.00;0.00;0.62;0.00;0.00;0.62;14.40;11.20;;;24.00;26.90;;;;;;2236450;62;20374;-68
2024/04/01 07:50:13;0.00;0.00;0.62;0.00;0.00;0.62;13.17;10.90;;;24.00;26.90;;;;;;2236496;62;20842;-68
2024/04/01 07:52:39;0.00;0.00;0.62;0.00;0.00;0.62;15.57;11.80;;;24.00;26.90;;;;;;2235984;61;20496;-67
2024/04/01 07:55:06;0.00;0.00;0.62;0.00;0.00;0.62;13.90;10.03;;;24.00;26.90;;;;;;2236448;62;20359;-67
2024/04/01 07:57:34;0.00;0.00;0.62;0.00;0.00;0.62;13.70;11.03;;;24.00;26.90;;;;;;2236162;62;20359;-68
2024/04/01 08:00:00;0.00;0.00;0.62;0.00;0.00;0.62;14.70;11.20;;;24.00;26.90;;;;;;2236833;62;20438;-67
2024/04/01 08:02:27;0.00;0.00;0.62;0.00;0.00;0.62;12.37;10.90;;;24.00;26.90;;;;;;2236447;62;20909;-68
2024/04/01 08:04:53;0.00;0.00;0.62;0.00;0.00;0.62;15.50;11.23;;;24.00;26.90;;;;;;2236827;62;20438;-67
2024/04/01 08:07:20;0.00;0.00;0.62;0.00;0.00;0.62;13.37;10.90;;;24.00;26.90;;;;;;2236618;62;20468;-68
2024/04/01 08:09:46;0.00;0.00;0.62;0.00;0.00;0.62;16.27;11.87;;;24.00;26.90;;;;;;2236222;62;20360;-67
2024/04/01 08:12:12;0.00;0.00;0.62;0.00;0.00;0.62;15.00;11.90;;;24.00;26.90;;;;;;2236876;61;20402;-67
2024/04/01 08:14:40;0.00;0.00;0.62;0.00;0.00;0.62;16.33;11.93;;;24.00;26.90;;;;;;2236555;62;20363;-67
2024/04/01 08:17:06;0.00;0.00;0.62;0.00;0.00;0.62;14.93;12.10;;;24.00;26.90;;;;;;2236329;62;20487;-68
2024/04/01 08:19:32;0.00;0.00;0.62;0.00;0.00;0.62;13.17;11.40;;;24.00;26.90;;;;;;2236782;62;20394;-68
2024/04/01 08:21:59;0.00;0.00;0.62;0.00;0.00;0.62;15.90;11.30;;;24.00;26.90;;;;;;2239260;61;20383;-71
2024/04/01 08:24:25;0.00;0.00;0.62;0.00;0.00;0.62;12.97;11.60;;;24.00;26.90;;;;;;2236179;62;20438;-68
2024/04/01 08:26:51;0.00;0.00;0.62;0.00;0.00;0.62;13.60;11.83;;;24.00;26.90;;;;;;2236223;62;20359;-68
2024/04/01 08:29:17;0.00;0.00;0.62;0.00;0.00;0.62;13.20;11.60;;;24.00;27.00;;;;;;2236731;62;20406;-68
2024/04/01 08:31:45;0.00;0.00;0.62;0.00;0.00;0.62;14.77;12.20;;;24.00;27.00;;;;;;2236491;61;20426;-69
2024/04/01 08:34:11;0.00;0.00;0.62;0.00;0.00;0.62;14.70;11.40;;;24.00;27.00;;;;;;2236912;62;20367;-69
2024/04/01 08:36:37;0.00;0.00;0.62;0.00;0.00;0.62;15.60;12.77;;;24.00;27.00;;;;;;2239239;61;20362;-69
2024/04/01 08:39:03;0.00;0.00;0.62;0.00;0.00;0.62;13.43;11.57;;;24.00;27.00;;;;;;2236501;62;21225;-68
2024/04/01 08:41:36;0.00;0.00;0.62;0.00;0.00;0.62;17.10;13.17;;;24.00;27.00;;;;;;2239520;61;20509;-70
2024/04/01 08:44:11;0.00;0.00;0.62;0.00;0.00;0.62;14.90;12.00;;;24.00;27.00;;;;;;2236928;62;20363;-70
2024/04/01 08:46:40;0.00;0.00;0.62;0.00;0.00;0.62;12.87;10.77;;;24.00;27.00;;;;;;2235659;62;20359;-68
2024/04/01 08:49:12;0.00;0.00;0.62;0.00;0.00;0.62;13.50;11.20;;;24.00;27.00;;;;;;2236971;62;20367;-69
2024/04/01 08:51:39;0.00;0.00;0.62;0.00;0.00;0.62;15.63;12.17;;;24.00;27.00;;;;;;2236739;62;20387;-69
2024/04/01 08:54:08;0.00;0.00;0.62;0.00;0.00;0.62;17.77;13.27;;;24.00;27.00;;;;;;2236451;62;20427;-68
2024/04/01 08:56:41;0.00;0.00;0.62;0.00;0.00;0.62;13.60;11.80;;;24.00;27.00;;;;;;2236358;62;20367;-69
2024/04/01 08:59:08;0.00;0.00;0.62;0.00;0.00;0.62;12.87;11.00;;;24.00;27.00;;;;;;2236797;62;20379;-69
2024/04/01 09:01:35;0.00;0.00;0.62;0.00;0.00;0.62;13.70;11.43;;;24.00;27.00;;;;;;2236499;61;20705;-69
2024/04/01 09:04:02;0.00;0.00;0.62;0.00;0.00;0.62;15.93;12.83;;;24.00;27.00;;;;;;2236603;62;20355;-68
2024/04/01 09:06:30;0.00;0.00;0.62;0.00;0.00;0.62;13.97;10.83;;;24.00;27.10;;;;;;2236543;62;20445;-69
2024/04/01 09:08:57;0.00;0.00;0.62;0.00;0.00;0.62;13.70;12.00;;;24.00;27.10;;;;;;2236400;62;20366;-70
2024/04/01 09:11:25;0.00;0.00;0.62;0.00;0.00;0.62;16.30;12.33;;;24.00;27.00;;;;;;2236851;62;20348;-69
2024/04/01 09:13:52;0.00;0.00;0.62;0.00;0.00;0.62;12.67;10.40;;;24.00;27.10;;;;;;2236603;62;20374;-69
2024/04/01 09:16:22;0.00;0.00;0.62;0.00;0.00;0.62;13.37;11.97;;;24.00;27.10;;;;;;2236397;62;20435;-69
2024/04/01 09:18:49;0.00;0.00;0.62;0.00;0.00;0.62;14.77;12.63;;;24.00;27.10;;;;;;2236214;62;20916;-68
2024/04/01 09:21:18;0.00;0.00;0.62;0.00;0.00;0.62;14.07;11.40;;;24.00;27.10;;;;;;2236606;61;20360;-69
2024/04/01 09:23:46;0.00;0.00;0.62;0.00;0.00;0.62;13.43;11.07;;;24.00;27.10;;;;;;2236699;62;20364;-68
2024/04/01 09:26:13;0.00;0.00;0.62;0.00;0.00;0.62;13.80;10.77;;;24.00;27.10;;;;;;2238027;62;20784;-68
2024/04/01 09:28:40;0.00;0.00;0.62;0.00;0.00;0.62;13.10;10.27;;;24.00;27.10;;;;;;2237167;62;20394;-69
2024/04/01 09:31:08;0.00;0.00;0.62;0.00;0.00;0.62;13.60;11.10;;;24.00;27.10;;;;;;2236348;62;20815;-68
2024/04/01 09:33:34;0.00;0.00;0.62;0.00;0.00;0.62;15.70;10.73;;;24.00;27.10;;;;;;2236681;62;20398;-68